Time;durP1;ratioP1;P1;durP2;ratioP2;P2;SDS_P1;SDS_P2;PMS_P1;PMS_P2;Temp;Humidity;BMP_temperature;BMP_pressure;BME280_temperature;BME280_humidity;BME280_pressure;Samples;Min_cycle;Max_cycle;Signal;HPM_P1;HPM_P2
2023/09/03 00:01:32;;;;;;;20.45;18.50;;;14.90;89.30;;;;;;4973803;28;20643;-88
2023/09/03 00:03:58;;;;;;;11.57;10.18;;;14.90;89.20;;;;;;4974395;28;20635;-87
2023/09/03 00:06:23;;;;;;;12.23;10.45;;;14.90;89.30;;;;;;4975100;28;20175;-88
2023/09/03 00:08:49;;;;;;;16.27;14.65;;;14.80;89.30;;;;;;4973824;28;20190;-87
2023/09/03 00:11:15;;;;;;;17.23;15.68;;;14.80;89.60;;;;;;4973073;28;20293;-87
2023/09/03 00:13:44;;;;;;;20.15;18.45;;;14.80;89.60;;;;;;4972979;28;20217;-87
2023/09/03 00:16:10;;;;;;;11.48;9.73;;;14.70;89.40;;;;;;4973144;28;20179;-88
2023/09/03 00:18:38;;;;;;;13.75;9.80;;;14.60;89.10;;;;;;4973299;28;20610;-88
2023/09/03 00:21:07;;;;;;;11.07;10.00;;;14.50;89.10;;;;;;4975020;28;20589;-88
2023/09/03 00:23:33;;;;;;;12.07;10.00;;;14.50;89.10;;;;;;4975153;28;20542;-88
2023/09/03 00:26:00;;;;;;;12.00;10.18;;;14.50;89.10;;;;;;4976161;28;20174;-87
2023/09/03 00:28:26;;;;;;;11.07;9.80;;;14.50;89.10;;;;;;4977744;28;20182;-88
2023/09/03 00:31:08;;;;;;;10.25;9.35;;;14.40;89.10;;;;;;4978207;28;20202;-87
2023/09/03 00:33:35;;;;;;;11.38;10.23;;;14.30;89.10;;;;;;4978067;28;20217;-87
2023/09/03 00:36:06;;;;;;;10.75;9.68;;;14.30;89.00;;;;;;4977153;28;20179;-87
2023/09/03 00:38:32;;;;;;;10.80;9.73;;;14.30;89.00;;;;;;4976299;28;20182;-87
2023/09/03 00:40:58;;;;;;;11.23;10.05;;;14.20;88.80;;;;;;4977117;28;20187;-87
2023/09/03 00:43:24;;;;;;;10.95;9.85;;;14.20;89.10;;;;;;4976290;28;20183;-87
2023/09/03 00:45:50;;;;;;;11.88;10.45;;;14.30;89.50;;;;;;4976611;28;20190;-87
2023/09/03 00:48:23;;;;;;;11.73;10.73;;;14.30;89.70;;;;;;4976186;28;20178;-88
2023/09/03 00:50:50;;;;;;;14.10;11.05;;;14.30;89.80;;;;;;4975836;28;20705;-88
2023/09/03 00:53:18;;;;;;;12.02;10.55;;;14.40;89.70;;;;;;4976459;28;20210;-88
2023/09/03 00:55:44;;;;;;;11.68;10.50;;;14.40;89.60;;;;;;4976189;28;20641;-88
2023/09/03 00:58:11;;;;;;;11.40;10.50;;;14.40;89.40;;;;;;4975753;28;20266;-88
2023/09/03 01:00:37;;;;;;;12.07;10.88;;;14.30;89.20;;;;;;4975884;28;20678;-88
2023/09/03 01:03:04;;;;;;;11.90;10.70;;;14.30;89.50;;;;;;4975572;28;20189;-88
2023/09/03 01:05:30;;;;;;;10.82;9.73;;;14.30;89.40;;;;;;4975557;28;20193;-88
2023/09/03 01:07:57;;;;;;;13.63;11.02;;;14.30;90.10;;;;;;4975677;28;20556;-88
2023/09/03 01:10:28;;;;;;;13.95;10.07;;;14.30;90.50;;;;;;4975360;28;20222;-88
2023/09/03 01:13:14;;;;;;;12.50;10.70;;;14.20;90.80;;;;;;4975386;28;20575;-88
2023/09/03 01:15:48;;;;;;;14.75;11.02;;;14.30;91.10;;;;;;4976354;28;20233;-88
2023/09/03 01:18:21;;;;;;;11.77;10.15;;;14.30;91.10;;;;;;4975291;28;20222;-88
2023/09/03 01:21:17;;;;;;;11.52;10.43;;;14.30;91.20;;;;;;4976478;28;20218;-88
2023/09/03 01:24:10;;;;;;;11.00;8.82;;;14.30;91.20;;;;;;4975500;28;20175;-88
2023/09/03 01:26:58;;;;;;;10.77;9.65;;;14.30;91.10;;;;;;4975980;28;20257;-88
2023/09/03 01:29:25;;;;;;;13.43;9.13;;;14.30;91.00;;;;;;4975116;28;20198;-88
2023/09/03 01:31:50;;;;;;;10.13;9.00;;;14.30;90.90;;;;;;4975005;28;20210;-88
2023/09/03 01:34:17;;;;;;;10.32;8.98;;;14.40;90.90;;;;;;4974960;28;20175;-88
2023/09/03 01:36:44;;;;;;;11.27;9.00;;;14.40;90.70;;;;;;4974466;28;20182;-88
2023/09/03 01:39:10;;;;;;;15.10;8.82;;;14.30;90.60;;;;;;4976122;28;20171;-88
2023/09/03 01:41:37;;;;;;;9.68;8.75;;;14.30;90.50;;;;;;4975748;28;20177;-88
2023/09/03 01:44:05;;;;;;;12.38;9.00;;;14.30;90.40;;;;;;4974797;28;20175;-88
2023/09/03 01:46:44;;;;;;;9.18;8.38;;;14.30;90.30;;;;;;4974714;28;20206;-88
2023/09/03 01:49:54;;;;;;;9.70;8.50;;;14.20;90.10;;;;;;4974718;28;20179;-88
2023/09/03 01:52:47;;;;;;;9.73;8.95;;;14.10;90.00;;;;;;4993264;28;20216;-88
2023/09/03 01:55:16;;;;;;;9.50;8.70;;;14.20;90.10;;;;;;4974649;28;20163;-88
2023/09/03 01:57:49;;;;;;;10.20;9.30;;;14.20;90.00;;;;;;4974898;28;20234;-88
2023/09/03 02:00:18;;;;;;;11.57;10.30;;;14.20;89.90;;;;;;4975672;28;20252;-88
2023/09/03 02:02:46;;;;;;;11.05;9.95;;;14.20;89.70;;;;;;4974610;28;20226;-88
2023/09/03 02:05:13;;;;;;;9.90;8.90;;;14.20;89.60;;;;;;4974508;28;20254;-88
2023/09/03 02:07:39;;;;;;;14.02;10.48;;;14.10;89.20;;;;;;4974466;28;20655;-88
2023/09/03 02:10:05;;;;;;;11.65;10.35;;;14.00;89.10;;;;;;4974686;28;20208;-88
2023/09/03 02:12:30;;;;;;;10.68;9.82;;;14.00;89.40;;;;;;4974724;28;20203;-88
2023/09/03 02:14:56;;;;;;;10.95;9.95;;;14.00;89.40;;;;;;4974346;28;20241;-88
2023/09/03 02:17:21;;;;;;;11.55;10.43;;;14.00;89.30;;;;;;4975551;28;20631;-88
2023/09/03 02:19:52;;;;;;;11.63;10.52;;;14.00;89.10;;;;;;4974148;28;20206;-88
2023/09/03 02:22:18;;;;;;;12.48;10.27;;;14.00;88.90;;;;;;4974490;28;20178;-88
2023/09/03 02:24:44;;;;;;;14.43;10.65;;;14.00;89.00;;;;;;4974893;28;20273;-88
2023/09/03 02:27:10;;;;;;;11.18;10.23;;;13.90;89.30;;;;;;4974090;28;20178;-88
2023/09/03 02:29:36;;;;;;;13.13;10.30;;;14.00;89.60;;;;;;4974591;28;20203;-88
2023/09/03 02:32:02;;;;;;;11.75;10.65;;;14.00;89.50;;;;;;4974131;28;20686;-88
2023/09/03 02:34:28;;;;;;;13.05;11.77;;;14.00;89.40;;;;;;4973986;28;20189;-88
2023/09/03 02:36:53;;;;;;;11.20;10.18;;;14.00;89.40;;;;;;4975300;28;20174;-88
2023/09/03 02:39:19;;;;;;;12.05;10.93;;;14.00;89.60;;;;;;4973910;28;20178;-88
2023/09/03 02:41:44;;;;;;;11.27;10.07;;;14.00;89.60;;;;;;4975190;28;20174;-88
2023/09/03 02:44:10;;;;;;;12.68;10.68;;;14.00;89.90;;;;;;4973868;28;20234;-88
2023/09/03 02:46:36;;;;;;;10.20;9.43;;;14.00;90.10;;;;;;4975035;28;20187;-88
2023/09/03 02:49:02;;;;;;;10.77;9.77;;;14.00;90.10;;;;;;4973005;28;20183;-88
2023/09/03 02:51:28;;;;;;;10.25;9.00;;;14.00;90.20;;;;;;4974850;28;20522;-88
2023/09/03 02:53:56;;;;;;;11.13;9.60;;;14.00;90.20;;;;;;4974836;28;20635;-88
2023/09/03 02:56:22;;;;;;;11.40;9.25;;;14.00;90.40;;;;;;4975200;28;20229;-88
2023/09/03 02:58:49;;;;;;;9.77;8.98;;;14.00;90.50;;;;;;4974944;28;20604;-88
2023/09/03 03:01:16;;;;;;;10.75;9.45;;;14.10;90.70;;;;;;4973951;28;20194;-88
2023/09/03 03:03:42;;;;;;;11.13;9.27;;;14.00;90.80;;;;;;4973740;28;20552;-88
2023/09/03 03:06:08;;;;;;;10.45;9.45;;;14.00;90.90;;;;;;4973734;28;20184;-88
2023/09/03 03:08:33;;;;;;;10.23;8.98;;;13.90;91.00;;;;;;4973680;28;20273;-88
2023/09/03 03:11:13;;;;;;;15.20;7.97;;;13.90;91.00;;;;;;4973499;28;20203;-88
2023/09/03 03:13:39;;;;;;;11.70;8.07;;;13.80;90.90;;;;;;4973424;28;20226;-88
2023/09/03 03:16:15;;;;;;;11.32;8.52;;;13.80;90.90;;;;;;4973443;28;20179;-88
2023/09/03 03:18:45;;;;;;;11.85;9.07;;;13.80;90.70;;;;;;4973937;28;20630;-87
2023/09/03 03:21:22;;;;;;;9.15;8.13;;;13.80;90.80;;;;;;4974243;28;20206;-88
2023/09/03 03:23:49;;;;;;;10.40;8.93;;;13.70;90.80;;;;;;4973277;28;20252;-88
2023/09/03 03:26:15;;;;;;;8.98;8.13;;;13.70;90.70;;;;;;4973397;28;20677;-88
2023/09/03 03:28:41;;;;;;;9.85;9.07;;;13.80;90.70;;;;;;4974492;28;20202;-88
2023/09/03 03:31:15;;;;;;;9.70;8.95;;;13.70;90.60;;;;;;4973653;28;20249;-88
2023/09/03 03:33:41;;;;;;;10.20;8.75;;;13.60;90.40;;;;;;4974609;28;20195;-88
2023/09/03 03:36:09;;;;;;;9.07;8.27;;;13.70;90.50;;;;;;4974408;28;20166;-88
2023/09/03 03:38:35;;;;;;;8.55;7.70;;;13.70;90.50;;;;;;4973623;28;20179;-88
2023/09/03 03:41:10;;;;;;;8.93;8.23;;;13.50;90.20;;;;;;4973153;28;20661;-88
2023/09/03 03:43:37;;;;;;;11.05;8.32;;;13.50;90.20;;;;;;4974047;28;20174;-88
2023/09/03 03:46:03;;;;;;;9.75;8.85;;;13.40;90.30;;;;;;4973412;28;20174;-87
2023/09/03 03:48:28;;;;;;;8.80;8.00;;;13.50;90.50;;;;;;4973713;28;20174;-87
2023/09/03 03:50:55;;;;;;;8.77;8.00;;;13.50;90.40;;;;;;4973376;28;20198;-87
2023/09/03 03:53:20;;;;;;;9.10;8.40;;;13.50;90.30;;;;;;4974053;28;20238;-87
2023/09/03 03:55:46;;;;;;;8.98;8.27;;;13.50;90.20;;;;;;4973793;28;20182;-87
2023/09/03 03:58:11;;;;;;;9.45;8.52;;;13.50;90.10;;;;;;4974741;28;20171;-87
2023/09/03 04:00:37;;;;;;;10.60;8.07;;;13.40;89.90;;;;;;4974585;28;20206;-87
2023/09/03 04:03:03;;;;;;;9.60;8.70;;;13.40;89.90;;;;;;4977017;28;20213;-87
2023/09/03 04:05:28;;;;;;;9.73;9.02;;;13.40;89.80;;;;;;4977330;28;20261;-87
2023/09/03 04:07:54;;;;;;;11.07;9.05;;;13.30;89.80;;;;;;4976938;28;20178;-87
2023/09/03 04:10:20;;;;;;;9.52;8.50;;;13.30;90.00;;;;;;4976808;28;20206;-87
2023/09/03 04:12:45;;;;;;;11.30;9.18;;;13.30;90.10;;;;;;4976987;28;20297;-87
2023/09/03 04:15:11;;;;;;;9.25;8.45;;;13.30;90.20;;;;;;4976859;28;20654;-88
2023/09/03 04:17:36;;;;;;;9.20;8.40;;;13.30;90.20;;;;;;4976860;28;20178;-87
2023/09/03 04:20:02;;;;;;;8.90;8.10;;;13.30;90.30;;;;;;4978297;28;20229;-87
2023/09/03 04:22:28;;;;;;;9.98;8.48;;;13.40;90.30;;;;;;4976769;28;20630;-87
2023/09/03 04:24:54;;;;;;;9.07;8.20;;;13.40;90.30;;;;;;4976373;28;20570;-87
2023/09/03 04:27:19;;;;;;;9.18;8.32;;;13.40;90.30;;;;;;4976509;28;20285;-87
2023/09/03 04:29:45;;;;;;;16.52;15.32;;;13.40;90.30;;;;;;4976739;28;20297;-87
2023/09/03 04:32:10;;;;;;;19.45;17.98;;;13.40;90.20;;;;;;4976799;28;20199;-87
2023/09/03 04:34:36;;;;;;;15.55;14.20;;;13.40;90.10;;;;;;4976727;28;20181;-87
2023/09/03 04:37:02;;;;;;;9.23;8.38;;;13.40;90.20;;;;;;4976565;28;20549;-87
2023/09/03 04:39:27;;;;;;;10.30;9.43;;;13.40;90.30;;;;;;4976199;28;20191;-87
2023/09/03 04:41:53;;;;;;;17.83;16.42;;;13.50;90.30;;;;;;4976384;28;20245;-87
2023/09/03 04:44:20;;;;;;;17.63;16.07;;;13.50;90.30;;;;;;4976575;28;20249;-87
2023/09/03 04:46:45;;;;;;;19.10;17.45;;;13.40;90.30;;;;;;4977207;28;20182;-87
2023/09/03 04:49:11;;;;;;;9.65;8.85;;;13.40;90.30;;;;;;4977088;28;20210;-87
2023/09/03 04:51:36;;;;;;;9.15;8.32;;;13.30;90.40;;;;;;4977759;28;20175;-87
2023/09/03 04:54:02;;;;;;;15.02;13.93;;;13.30;90.60;;;;;;4977422;28;20175;-89
2023/09/03 04:56:28;;;;;;;15.32;14.18;;;13.30;90.50;;;;;;4977532;28;20265;-90
2023/09/03 04:58:53;;;;;;;9.73;8.67;;;13.30;90.60;;;;;;4975849;28;20189;-88
2023/09/03 05:01:19;;;;;;;8.65;7.95;;;13.40;90.70;;;;;;4977372;28;20203;-87
2023/09/03 05:03:45;;;;;;;7.80;7.20;;;13.50;90.80;;;;;;4975845;28;20174;-87
2023/09/03 05:06:15;;;;;;;7.97;7.20;;;13.50;90.80;;;;;;4975828;28;20179;-87
2023/09/03 05:08:41;;;;;;;8.90;8.00;;;13.50;90.90;;;;;;4976222;28;20221;-87
2023/09/03 05:11:12;;;;;;;8.18;7.45;;;13.50;90.90;;;;;;4976904;28;20579;-87
2023/09/03 05:13:39;;;;;;;8.00;7.30;;;13.50;90.90;;;;;;4976474;28;20851;-87
2023/09/03 05:16:04;;;;;;;9.05;8.10;;;13.60;90.90;;;;;;4976251;28;20657;-87
2023/09/03 05:18:30;;;;;;;8.68;7.95;;;13.70;90.90;;;;;;4976108;28;20183;-87
2023/09/03 05:20:56;;;;;;;8.23;7.68;;;13.80;90.90;;;;;;4975818;28;20222;-87
2023/09/03 05:23:22;;;;;;;8.48;7.68;;;13.70;90.60;;;;;;4975718;28;20175;-87
2023/09/03 05:25:47;;;;;;;8.25;7.65;;;13.80;90.60;;;;;;4975612;28;20201;-87
2023/09/03 05:28:13;;;;;;;9.90;7.90;;;13.70;90.50;;;;;;4975695;28;20202;-88
2023/09/03 05:30:38;;;;;;;8.18;7.57;;;13.70;90.40;;;;;;4976697;28;20230;-87
2023/09/03 05:33:04;;;;;;;8.43;7.60;;;13.70;90.50;;;;;;4976803;28;20206;-87
2023/09/03 05:35:30;;;;;;;8.40;7.70;;;13.70;90.40;;;;;;4975404;28;20182;-87
2023/09/03 05:37:55;;;;;;;8.85;7.95;;;13.70;90.30;;;;;;4975557;28;20183;-87
2023/09/03 05:40:21;;;;;;;8.43;7.63;;;13.70;90.30;;;;;;4976788;28;20199;-88
2023/09/03 05:42:48;;;;;;;7.90;7.13;;;13.80;90.70;;;;;;4975511;28;20179;-87
2023/09/03 05:45:13;;;;;;;8.18;7.10;;;13.80;91.00;;;;;;4975781;28;20179;-87
2023/09/03 05:47:39;;;;;;;7.97;7.20;;;13.80;91.20;;;;;;4975790;28;20178;-87
2023/09/03 05:50:05;;;;;;;8.63;7.40;;;13.90;91.40;;;;;;4975799;28;20198;-87
2023/09/03 05:52:31;;;;;;;10.10;7.10;;;13.90;91.60;;;;;;4975201;28;20763;-87
2023/09/03 05:54:57;;;;;;;8.73;7.80;;;13.90;91.70;;;;;;4977119;28;20283;-87
2023/09/03 05:57:22;;;;;;;8.17;7.43;;;14.00;91.80;;;;;;4975511;28;20174;-87
2023/09/03 05:59:52;;;;;;;12.50;7.45;;;14.10;91.90;;;;;;4976548;28;20201;-87
2023/09/03 06:02:17;;;;;;;8.27;7.25;;;14.10;91.90;;;;;;4975086;28;20557;-87
2023/09/03 06:04:43;;;;;;;11.27;7.43;;;14.20;91.90;;;;;;4976871;28;20175;-92
2023/09/03 06:07:09;;;;;;;8.20;7.38;;;14.30;91.90;;;;;;4974575;28;20206;-87
2023/09/03 06:09:36;;;;;;;8.03;7.13;;;14.40;91.80;;;;;;4975373;28;20247;-89
2023/09/03 06:12:01;;;;;;;7.90;7.07;;;14.30;91.70;;;;;;4975598;28;20194;-87
2023/09/03 06:14:27;;;;;;;9.25;7.35;;;14.60;91.90;;;;;;4974699;28;20230;-87
2023/09/03 06:16:54;;;;;;;11.18;6.72;;;14.60;91.70;;;;;;4976173;28;20175;-87
2023/09/03 06:19:20;;;;;;;8.55;7.05;;;14.70;91.60;;;;;;4974887;28;20529;-88
2023/09/03 06:21:46;;;;;;;8.45;6.75;;;14.80;91.40;;;;;;4975244;28;20178;-87
2023/09/03 06:24:12;;;;;;;9.02;7.00;;;14.80;91.00;;;;;;4975440;28;20552;-87
2023/09/03 06:26:38;;;;;;;6.97;6.38;;;15.00;90.80;;;;;;4974613;28;20183;-87
2023/09/03 06:29:03;;;;;;;6.95;6.45;;;14.90;90.50;;;;;;4975459;28;20588;-87
2023/09/03 06:31:29;;;;;;;9.35;7.15;;;14.90;90.50;;;;;;4975382;28;20217;-87
2023/09/03 06:33:54;;;;;;;7.80;7.10;;;15.00;90.50;;;;;;4975227;28;20297;-87
2023/09/03 06:36:20;;;;;;;10.30;7.18;;;15.00;90.50;;;;;;4974316;28;20548;-87
2023/09/03 06:38:46;;;;;;;8.02;7.22;;;15.00;90.60;;;;;;4974806;28;20181;-87
2023/09/03 06:41:12;;;;;;;7.60;6.50;;;15.10;90.60;;;;;;4974302;28;20575;-87
2023/09/03 06:43:38;;;;;;;7.22;6.25;;;15.10;90.60;;;;;;4975053;28;20182;-88
2023/09/03 06:46:03;;;;;;;8.50;7.63;;;15.20;90.60;;;;;;4973858;28;20179;-87
2023/09/03 06:48:29;;;;;;;7.82;7.10;;;15.20;90.20;;;;;;4975048;28;20291;-87
2023/09/03 06:50:56;;;;;;;7.15;6.55;;;15.30;90.10;;;;;;4974803;28;20202;-87
2023/09/03 06:53:21;;;;;;;7.97;7.35;;;15.30;89.90;;;;;;4974811;28;20194;-87
2023/09/03 06:55:47;;;;;;;8.45;7.68;;;15.40;89.90;;;;;;4973754;28;20179;-87
2023/09/03 06:58:13;;;;;;;7.47;6.88;;;15.50;89.80;;;;;;4974796;28;20701;-87
2023/09/03 07:00:38;;;;;;;10.15;7.43;;;15.60;89.80;;;;;;4973674;28;20202;-87
2023/09/03 07:03:04;;;;;;;8.10;7.40;;;15.70;89.70;;;;;;4973489;28;20174;-88
2023/09/03 07:05:29;;;;;;;8.45;7.53;;;15.80;89.70;;;;;;4974250;28;20194;-87
2023/09/03 07:07:55;;;;;;;8.70;7.75;;;15.90;89.40;;;;;;4975173;28;20631;-87
2023/09/03 07:10:21;;;;;;;10.05;8.05;;;15.90;88.70;;;;;;4973442;28;20666;-87
2023/09/03 07:12:46;;;;;;;7.78;6.93;;;16.00;88.60;;;;;;4973362;28;20202;-87
2023/09/03 07:15:12;;;;;;;8.23;7.53;;;16.10;88.60;;;;;;4973350;28;20704;-88
2023/09/03 07:17:37;;;;;;;7.65;6.93;;;16.10;88.50;;;;;;4974857;28;20178;-87
2023/09/03 07:20:03;;;;;;;8.45;7.40;;;16.20;88.50;;;;;;4973358;28;20214;-87
2023/09/03 07:22:29;;;;;;;8.48;7.70;;;16.20;88.10;;;;;;4973332;28;20187;-87
2023/09/03 07:24:54;;;;;;;9.00;8.18;;;16.30;88.10;;;;;;4973560;28;20186;-87
2023/09/03 07:27:20;;;;;;;8.13;7.30;;;16.30;87.70;;;;;;4974754;28;20221;-87
2023/09/03 07:29:46;;;;;;;8.45;7.40;;;16.40;87.50;;;;;;4973148;28;20203;-87
2023/09/03 07:32:11;;;;;;;8.50;7.63;;;16.40;87.40;;;;;;4973572;28;20206;-88
2023/09/03 07:34:36;;;;;;;10.00;8.38;;;16.50;87.40;;;;;;4973816;28;20166;-87
2023/09/03 07:37:02;;;;;;;8.20;7.45;;;16.60;87.30;;;;;;4978366;28;20174;-88
2023/09/03 07:39:28;;;;;;;8.15;7.07;;;16.70;87.10;;;;;;4977318;28;20202;-87
2023/09/03 07:41:56;;;;;;;7.82;6.97;;;16.70;86.50;;;;;;4977668;28;20174;-88
2023/09/03 07:44:25;;;;;;;9.23;8.43;;;16.80;86.70;;;;;;4977378;28;20658;-88
2023/09/03 07:46:50;;;;;;;13.70;12.52;;;16.80;86.40;;;;;;4978534;28;20225;-88
2023/09/03 07:49:16;;;;;;;13.32;12.30;;;16.80;86.40;;;;;;4977274;28;20179;-88
2023/09/03 07:51:41;;;;;;;13.70;12.70;;;16.70;86.00;;;;;;4977247;28;20662;-87
2023/09/03 07:54:07;;;;;;;9.10;8.40;;;16.80;86.20;;;;;;4977709;28;20179;-88
2023/09/03 07:56:32;;;;;;;9.43;8.60;;;16.80;86.20;;;;;;4977308;28;20186;-88
2023/09/03 07:58:58;;;;;;;13.95;12.95;;;16.80;85.60;;;;;;4977031;28;20731;-88
2023/09/03 08:01:24;;;;;;;13.35;12.45;;;17.00;85.70;;;;;;4976857;28;20198;-87
2023/09/03 08:03:50;;;;;;;14.10;13.18;;;17.10;85.60;;;;;;4977247;28;20196;-88
2023/09/03 08:06:15;;;;;;;8.82;7.80;;;17.20;86.00;;;;;;4977129;28;20286;-88
2023/09/03 08:08:41;;;;;;;8.57;7.88;;;17.20;85.30;;;;;;4979070;28;20175;-87
2023/09/03 08:11:07;;;;;;;9.30;8.55;;;17.20;84.90;;;;;;4976872;28;20198;-87
2023/09/03 08:13:32;;;;;;;10.35;9.27;;;17.30;85.20;;;;;;4978172;28;20562;-88
2023/09/03 08:15:58;;;;;;;10.07;9.18;;;17.40;85.10;;;;;;4976771;28;20281;-87
2023/09/03 08:18:23;;;;;;;11.18;9.98;;;17.50;84.60;;;;;;4976604;28;20234;-88
2023/09/03 08:20:50;;;;;;;10.05;9.13;;;17.50;84.10;;;;;;4976729;28;20258;-86
2023/09/03 08:23:15;;;;;;;10.38;9.48;;;17.70;84.70;;;;;;4976691;28;20757;-89
2023/09/03 08:25:41;;;;;;;9.32;8.48;;;17.80;84.40;;;;;;4977699;28;20202;-85
2023/09/03 08:28:08;;;;;;;9.68;8.98;;;18.00;84.40;;;;;;4977960;28;20179;-87
2023/09/03 08:30:34;;;;;;;9.10;8.30;;;18.00;83.20;;;;;;4976569;28;20624;-87
2023/09/03 08:32:59;;;;;;;11.25;9.18;;;18.10;83.40;;;;;;4976487;28;20246;-87
2023/09/03 08:35:25;;;;;;;11.18;9.95;;;18.10;83.00;;;;;;4977794;28;20167;-86
2023/09/03 08:37:51;;;;;;;9.15;8.45;;;18.00;82.80;;;;;;4976311;28;20213;-88
2023/09/03 08:40:18;;;;;;;10.90;10.00;;;18.20;83.80;;;;;;4976475;28;20190;-86
2023/09/03 08:42:46;;;;;;;12.00;11.02;;;18.30;83.40;;;;;;4977270;28;20299;-87
2023/09/03 08:45:12;;;;;;;10.93;10.02;;;18.20;81.30;;;;;;4976206;28;20310;-87
2023/09/03 08:47:40;;;;;;;11.05;10.13;;;18.40;82.10;;;;;;4974739;28;20229;-87
2023/09/03 08:50:09;;;;;;;10.63;9.57;;;18.60;82.30;;;;;;4976197;28;20260;-88
2023/09/03 08:52:40;;;;;;;12.25;11.05;;;18.60;81.50;;;;;;4975990;28;20214;-87
2023/09/03 08:55:07;;;;;;;12.50;11.48;;;18.30;79.90;;;;;;4976151;28;20206;-87
2023/09/03 08:57:35;;;;;;;12.43;11.38;;;18.40;80.00;;;;;;4976309;28;20645;-88
2023/09/03 09:00:06;;;;;;;11.57;10.68;;;18.50;81.10;;;;;;4976005;28;20277;-88
2023/09/03 09:02:36;;;;;;;12.13;11.20;;;18.60;80.10;;;;;;4979478;28;20190;-91
2023/09/03 09:05:04;;;;;;;14.10;13.02;;;18.80;81.20;;;;;;4989041;28;20225;-91
2023/09/03 09:07:30;;;;;;;14.15;12.65;;;18.90;78.30;;;;;;4990252;28;20197;-91
2023/09/03 09:09:58;;;;;;;12.45;11.48;;;19.00;78.50;;;;;;4993295;28;20203;-91
2023/09/03 09:12:36;;;;;;;12.40;11.25;;;19.20;78.20;;;;;;4989706;28;20202;-89
2023/09/03 09:15:04;;;;;;;19.15;17.55;;;19.40;77.80;;;;;;4982450;28;20580;-91
2023/09/03 09:17:40;;;;;;;20.00;18.27;;;19.20;76.80;;;;;;4982960;28;20336;-92
2023/09/03 09:20:07;;;;;;;22.08;20.48;;;19.10;77.30;;;;;;4990005;28;20219;-91
2023/09/03 09:22:43;;;;;;;14.15;13.10;;;19.10;76.70;;;;;;4983667;28;20189;-90
2023/09/03 09:25:17;;;;;;;13.90;12.70;;;19.20;76.90;;;;;;4985796;28;20664;-91
2023/09/03 09:27:42;;;;;;;14.02;13.02;;;19.50;76.60;;;;;;4988110;28;20175;-91
2023/09/03 09:30:16;;;;;;;15.13;14.00;;;19.50;75.80;;;;;;4986807;28;20209;-91
2023/09/03 09:32:43;;;;;;;15.32;14.27;;;19.30;74.80;;;;;;4983777;28;20336;-91
2023/09/03 09:35:09;;;;;;;15.77;14.25;;;19.40;74.80;;;;;;4987961;28;20165;-91
2023/09/03 09:37:40;;;;;;;23.33;21.52;;;19.50;74.80;;;;;;4984706;28;20265;-92
2023/09/03 09:40:10;;;;;;;20.90;19.40;;;19.50;74.50;;;;;;4984574;28;20285;-90
2023/09/03 09:42:51;;;;;;;24.40;22.50;;;19.70;75.60;;;;;;4981324;28;20226;-91
2023/09/03 09:45:17;;;;;;;14.90;13.80;;;19.50;74.20;;;;;;4984014;28;20175;-91
2023/09/03 09:47:43;;;;;;;14.90;13.88;;;19.60;74.70;;;;;;4981688;28;20233;-91
2023/09/03 09:50:08;;;;;;;16.33;14.95;;;19.50;75.50;;;;;;4981071;28;20297;-91
2023/09/03 09:52:35;;;;;;;15.73;14.52;;;19.60;75.50;;;;;;4985489;28;20205;-91
2023/09/03 09:55:01;;;;;;;15.13;14.02;;;19.60;73.90;;;;;;4984373;28;20182;-91
2023/09/03 09:57:27;;;;;;;14.90;13.70;;;19.70;74.50;;;;;;4987261;28;20174;-91
2023/09/03 10:00:00;;;;;;;15.15;14.00;;;20.00;74.70;;;;;;4984039;28;20205;-91
2023/09/03 10:02:25;;;;;;;14.15;13.25;;;19.90;74.10;;;;;;4986743;28;20636;-91
2023/09/03 10:04:52;;;;;;;15.45;14.35;;;19.70;75.20;;;;;;4975028;28;20179;-88
2023/09/03 10:07:18;;;;;;;15.95;14.70;;;19.30;72.70;;;;;;4976045;28;20583;-89
2023/09/03 10:09:45;;;;;;;16.52;15.02;;;19.20;73.50;;;;;;4979054;28;20194;-90
2023/09/03 10:12:11;;;;;;;14.10;13.10;;;19.40;74.10;;;;;;4979331;28;20241;-90
2023/09/03 10:14:37;;;;;;;14.45;13.40;;;19.70;74.10;;;;;;4981147;28;20183;-90
2023/09/03 10:17:10;;;;;;;16.23;15.02;;;19.70;73.50;;;;;;4983344;28;20183;-91
2023/09/03 10:19:47;;;;;;;16.83;15.60;;;19.70;73.90;;;;;;4984559;28;20214;-90
2023/09/03 10:22:16;;;;;;;16.50;15.27;;;20.10;71.70;;;;;;4985749;28;20176;-90
2023/09/03 10:24:45;;;;;;;17.25;15.70;;;20.00;71.30;;;;;;4982404;28;20651;-90
2023/09/03 10:27:14;;;;;;;16.42;15.18;;;20.20;71.10;;;;;;4977577;28;20193;-90
2023/09/03 10:29:43;;;;;;;24.40;22.73;;;19.90;71.30;;;;;;4977700;28;20585;-90
2023/09/03 10:32:12;;;;;;;27.48;25.40;;;20.10;72.00;;;;;;4981438;28;20202;-90
2023/09/03 10:34:37;;;;;;;20.17;18.73;;;20.30;69.60;;;;;;4981254;28;20681;-90
2023/09/03 10:37:11;;;;;;;17.10;15.68;;;20.50;69.20;;;;;;4981225;28;20178;-90
2023/09/03 10:39:40;;;;;;;15.88;14.77;;;20.70;69.00;;;;;;4983563;28;20705;-90
2023/09/03 10:42:15;;;;;;;17.00;15.70;;;20.80;68.90;;;;;;4983355;28;20205;-90
2023/09/03 10:44:49;;;;;;;16.10;14.80;;;21.20;69.50;;;;;;4978499;28;20179;-90
2023/09/03 10:47:17;;;;;;;17.65;16.35;;;21.30;69.50;;;;;;4980356;28;20178;-90
2023/09/03 10:49:44;;;;;;;16.67;15.45;;;21.50;69.30;;;;;;4982045;28;20209;-89
2023/09/03 10:52:28;;;;;;;18.40;16.90;;;21.20;67.30;;;;;;4982187;28;20297;-90
2023/09/03 10:55:17;;;;;;;18.90;17.42;;;20.90;68.50;;;;;;4976365;28;20677;-90
2023/09/03 10:57:46;;;;;;;17.92;16.65;;;20.80;65.10;;;;;;4981521;28;20230;-90
2023/09/03 11:00:17;;;;;;;17.13;15.90;;;20.90;66.70;;;;;;4977833;28;20217;-91
2023/09/03 11:02:43;;;;;;;16.83;15.60;;;20.90;68.00;;;;;;4983586;28;20167;-90
2023/09/03 11:05:40;;;;;;;16.52;15.25;;;21.20;68.10;;;;;;4984753;28;20655;-90
2023/09/03 11:08:31;;;;;;;20.55;18.98;;;21.50;65.60;;;;;;4983286;28;20175;-90
2023/09/03 11:10:58;;;;;;;21.35;19.58;;;21.20;64.20;;;;;;4986425;28;20249;-90
2023/09/03 11:13:24;;;;;;;19.95;18.65;;;21.30;62.30;;;;;;4989768;28;20376;-90
2023/09/03 11:15:52;;;;;;;20.20;18.80;;;21.50;65.00;;;;;;4987710;28;20174;-90
2023/09/03 11:18:20;;;;;;;20.98;19.40;;;21.50;65.50;;;;;;4983517;28;20174;-91
2023/09/03 11:20:47;;;;;;;20.55;19.15;;;21.50;64.70;;;;;;4979641;28;20222;-91
2023/09/03 11:23:13;;;;;;;19.80;18.45;;;21.80;63.50;;;;;;4986437;28;20222;-91
2023/09/03 11:25:40;;;;;;;19.98;18.63;;;22.20;62.20;;;;;;4988010;28;20175;-91
2023/09/03 11:28:08;;;;;;;20.00;18.70;;;22.20;61.00;;;;;;4984682;28;20549;-91
2023/09/03 11:30:34;;;;;;;20.23;18.67;;;21.80;63.00;;;;;;4982349;28;20198;-90
2023/09/03 11:33:00;;;;;;;19.60;18.30;;;21.90;62.60;;;;;;4987054;28;20206;-90
2023/09/03 11:35:27;;;;;;;19.58;18.35;;;22.10;62.00;;;;;;4990248;28;20171;-91
2023/09/03 11:37:53;;;;;;;20.40;19.00;;;21.70;62.80;;;;;;4988481;28;20175;-90
2023/09/03 11:40:25;;;;;;;20.58;18.95;;;21.80;64.50;;;;;;4987009;28;20211;-91
2023/09/03 11:42:51;;;;;;;20.17;18.77;;;22.30;64.10;;;;;;4980309;28;20179;-92
2023/09/03 11:45:17;;;;;;;20.27;18.50;;;22.70;63.20;;;;;;4988777;28;20171;-91
2023/09/03 11:47:50;;;;;;;19.35;18.15;;;22.00;63.90;;;;;;4992947;28;20179;-90
2023/09/03 11:50:16;;;;;;;20.48;18.98;;;21.60;64.50;;;;;;4991748;28;20221;-90
2023/09/03 11:52:59;;;;;;;21.25;19.75;;;21.30;66.00;;;;;;4987888;28;20207;-90
2023/09/03 11:55:30;;;;;;;21.40;19.70;;;21.50;66.10;;;;;;4987047;28;20152;-90
2023/09/03 11:58:00;;;;;;;20.30;18.80;;;21.30;66.50;;;;;;4987912;28;20195;-90
2023/09/03 12:00:27;;;;;;;20.17;18.77;;;21.40;66.10;;;;;;4984276;28;20222;-90
2023/09/03 12:02:53;;;;;;;19.95;18.52;;;21.30;65.40;;;;;;4985661;28;20183;-90
2023/09/03 12:05:20;;;;;;;19.17;17.90;;;21.40;63.80;;;;;;4984967;28;20215;-90
2023/09/03 12:07:49;;;;;;;19.52;17.92;;;21.30;65.30;;;;;;4987567;28;20202;-90
2023/09/03 12:10:18;;;;;;;19.75;18.30;;;21.60;66.00;;;;;;4986933;28;20261;-90
2023/09/03 12:12:45;;;;;;;20.33;18.90;;;21.60;65.90;;;;;;4987391;28;20207;-90
2023/09/03 12:15:21;;;;;;;19.77;18.38;;;21.40;64.90;;;;;;4984829;28;20190;-90
2023/09/03 12:17:47;;;;;;;19.55;18.15;;;21.50;66.00;;;;;;4987151;28;20170;-90
2023/09/03 12:20:36;;;;;;;20.73;19.17;;;21.50;66.20;;;;;;4988399;28;20285;-90
2023/09/03 12:23:19;;;;;;;20.20;18.80;;;21.20;68.00;;;;;;4987642;28;20155;-90
2023/09/03 12:25:46;;;;;;;19.88;18.48;;;21.30;67.40;;;;;;4986083;28;20181;-90
2023/09/03 12:28:12;;;;;;;20.40;18.73;;;21.20;66.30;;;;;;4989721;28;20174;-90
2023/09/03 12:30:58;;;;;;;19.38;18.00;;;21.40;66.30;;;;;;4987973;28;20198;-89
2023/09/03 12:33:33;;;;;;;19.55;18.17;;;21.10;67.10;;;;;;4985383;28;20253;-90
2023/09/03 12:36:20;;;;;;;25.17;23.58;;;21.50;66.60;;;;;;4985547;28;20158;-89
2023/09/03 12:38:59;;;;;;;26.83;25.02;;;21.50;67.60;;;;;;4986239;28;20677;-90
2023/09/03 12:41:30;;;;;;;28.73;26.70;;;21.80;65.50;;;;;;4985390;28;20262;-90